createdAt,value
2023-03-06T00:01:10.723Z,5.27
2023-03-06T00:03:38.839Z,5.33
2023-03-06T00:06:07.556Z,5.36
2023-03-06T00:08:35.631Z,5.39
2023-03-06T00:11:03.585Z,5.39
2023-03-06T00:13:32.216Z,5.40
2023-03-06T00:16:01.679Z,5.38
2023-03-06T00:18:31.147Z,5.39
2023-03-06T00:20:59.139Z,5.37
2023-03-06T00:23:28.054Z,5.33
2023-03-06T00:25:56.094Z,5.30
2023-03-06T00:28:24.280Z,5.29
2023-03-06T00:30:52.351Z,5.27
2023-03-06T00:33:20.400Z,5.27
2023-03-06T00:35:49.741Z,5.28
2023-03-06T00:38:17.813Z,5.29
2023-03-06T00:40:45.991Z,5.32
2023-03-06T00:43:14.438Z,5.37
2023-03-06T00:45:42.577Z,5.40
2023-03-06T00:48:10.725Z,5.42
2023-03-06T00:50:38.782Z,5.43
2023-03-06T00:53:11.116Z,5.41
2023-03-06T00:55:39.115Z,5.41
2023-03-06T00:58:07.153Z,5.40
2023-03-06T01:00:35.191Z,5.40
2023-03-06T01:03:03.531Z,5.37
2023-03-06T01:05:32.158Z,5.37
2023-03-06T01:08:00.277Z,5.35
2023-03-06T01:10:29.798Z,5.34
2023-03-06T01:12:58.016Z,5.33
2023-03-06T01:15:26.780Z,5.33
2023-03-06T01:17:55.170Z,5.28
2023-03-06T01:20:23.517Z,5.25
2023-03-06T01:22:51.602Z,5.25
2023-03-06T01:25:19.678Z,5.22
2023-03-06T01:27:49.147Z,5.18
2023-03-06T01:30:17.369Z,5.13
2023-03-06T01:32:45.447Z,5.03
2023-03-06T01:35:14.176Z,4.92
2023-03-06T01:37:43.027Z,4.83
2023-03-06T01:40:13.502Z,4.73
2023-03-06T01:42:42.505Z,4.65
2023-03-06T01:45:43.748Z,4.57
2023-03-06T01:48:13.696Z,4.55
2023-03-06T01:50:42.100Z,4.53
2023-03-06T01:53:10.454Z,4.50
2023-03-06T01:55:38.717Z,4.50
2023-03-06T01:58:10.077Z,4.50
2023-03-06T02:00:38.418Z,4.49
2023-03-06T02:03:11.077Z,4.42
2023-03-06T02:05:42.656Z,4.32
2023-03-06T02:08:11.947Z,4.24
2023-03-06T02:10:43.547Z,4.14
2023-03-06T02:13:11.703Z,4.11
2023-03-06T02:15:40.196Z,4.12
2023-03-06T02:18:08.458Z,4.15
2023-03-06T02:20:44.871Z,4.19
2023-03-06T02:23:21.192Z,4.20
2023-03-06T02:25:52.580Z,4.20
2023-03-06T02:28:23.187Z,4.19
2023-03-06T02:30:53.510Z,4.16
2023-03-06T02:33:24.266Z,4.12
2023-03-06T02:35:55.165Z,4.11
2023-03-06T02:38:26.462Z,4.09
2023-03-06T02:40:58.063Z,4.04
2023-03-06T02:43:30.730Z,3.98
2023-03-06T02:45:59.099Z,3.91
2023-03-06T02:48:27.272Z,3.85
2023-03-06T02:50:55.364Z,3.79
2023-03-06T02:53:23.747Z,3.76
2023-03-06T02:55:52.335Z,3.72
2023-03-06T02:58:21.874Z,3.64
2023-03-06T03:00:50.615Z,3.58
2023-03-06T03:03:19.177Z,3.53
2023-03-06T03:05:47.223Z,3.46
2023-03-06T03:08:15.265Z,3.38
2023-03-06T03:10:43.319Z,3.35
2023-03-06T03:13:11.410Z,3.30
2023-03-06T03:15:41.300Z,3.25
2023-03-06T03:18:10.338Z,3.21
2023-03-06T03:20:38.404Z,3.15
2023-03-06T03:23:06.424Z,3.11
2023-03-06T03:25:34.445Z,3.08
2023-03-06T03:28:02.624Z,3.06
2023-03-06T03:30:32.147Z,3.03
2023-03-06T03:33:01.562Z,2.97
2023-03-06T03:35:29.722Z,2.96
2023-03-06T03:37:57.842Z,2.93
2023-03-06T03:40:25.860Z,2.93
2023-03-06T03:42:54.022Z,2.91
2023-03-06T03:45:22.258Z,2.92
2023-03-06T03:47:50.308Z,2.90
2023-03-06T03:50:20.322Z,2.89
2023-03-06T03:52:48.296Z,2.91
2023-03-06T03:55:16.341Z,2.92
2023-03-06T03:57:44.491Z,2.93
2023-03-06T04:00:16.396Z,2.96
2023-03-06T04:02:45.190Z,2.98
2023-03-06T04:05:15.021Z,3.02
2023-03-06T04:07:44.878Z,3.04
2023-03-06T04:10:14.010Z,3.06
2023-03-06T04:12:42.265Z,3.06
2023-03-06T04:15:11.177Z,3.07
2023-03-06T04:17:39.189Z,3.08
2023-03-06T04:20:08.397Z,3.06
2023-03-06T04:22:36.381Z,3.07
2023-03-06T04:25:06.665Z,3.04
2023-03-06T04:27:34.757Z,3.02
2023-03-06T04:30:02.845Z,3.00
2023-03-06T04:32:30.991Z,3.00
2023-03-06T04:34:59.230Z,2.97
2023-03-06T04:37:27.644Z,2.95
2023-03-06T04:39:55.921Z,2.93
2023-03-06T04:42:25.400Z,2.90
2023-03-06T04:44:53.500Z,2.85
2023-03-06T04:47:21.644Z,2.83
2023-03-06T04:49:49.788Z,2.80
2023-03-06T04:52:17.923Z,2.78
2023-03-06T04:54:46.484Z,2.77
2023-03-06T04:57:15.169Z,2.74
2023-03-06T04:59:44.638Z,2.70
2023-03-06T05:02:12.644Z,2.71
2023-03-06T05:04:40.807Z,2.72
2023-03-06T05:07:08.933Z,2.74
2023-03-06T05:09:39.169Z,2.79
2023-03-06T05:12:07.706Z,2.83
2023-03-06T05:14:35.822Z,2.87
2023-03-06T05:17:05.250Z,2.93
2023-03-06T05:19:33.307Z,2.98
2023-03-06T05:22:01.375Z,3.03
2023-03-06T05:24:29.618Z,3.08
2023-03-06T05:26:57.685Z,3.18
2023-03-06T05:29:25.785Z,3.27
2023-03-06T05:31:54.013Z,3.35
2023-03-06T05:34:23.831Z,3.41
2023-03-06T05:36:51.943Z,3.46
2023-03-06T05:39:20.065Z,3.49
2023-03-06T05:41:48.035Z,3.54
2023-03-06T05:44:16.065Z,3.61
2023-03-06T05:46:44.016Z,3.70
2023-03-06T05:49:12.109Z,3.77
2023-03-06T05:51:41.534Z,3.83
2023-03-06T05:54:09.601Z,3.92
2023-03-06T05:56:37.749Z,4.00
2023-03-06T05:59:05.777Z,4.07
2023-03-06T06:01:33.745Z,4.13
2023-03-06T06:04:01.839Z,4.19
2023-03-06T06:06:29.879Z,4.25
2023-03-06T06:08:59.333Z,4.30
2023-03-06T06:11:27.328Z,4.40
2023-03-06T06:13:55.270Z,4.48
2023-03-06T06:16:23.384Z,4.56
2023-03-06T06:18:51.423Z,4.60
2023-03-06T06:21:19.512Z,4.69
2023-03-06T06:23:47.935Z,4.74
2023-03-06T06:26:17.517Z,4.76
2023-03-06T06:28:45.572Z,4.85
2023-03-06T06:31:14.573Z,4.92
2023-03-06T06:33:43.193Z,4.99
2023-03-06T06:36:19.156Z,5.05
2023-03-06T06:38:47.255Z,5.10
2023-03-06T06:44:08.597Z,5.27
2023-03-06T06:47:20.644Z,5.33
2023-03-06T06:49:25.496Z,5.33
2023-03-06T06:51:53.524Z,5.39
2023-03-06T06:54:22.390Z,5.40
2023-03-06T06:56:50.496Z,5.46
2023-03-06T06:59:20.309Z,5.57
2023-03-06T07:01:48.418Z,5.62
2023-03-06T07:04:18.101Z,5.65
2023-03-06T07:06:47.505Z,5.69
2023-03-06T07:09:16.247Z,5.82
2023-03-06T07:11:44.243Z,5.91
2023-03-06T07:14:12.338Z,5.97
2023-03-06T07:16:41.728Z,6.04
2023-03-06T07:19:09.961Z,6.10
2023-03-06T07:21:37.995Z,6.16
2023-03-06T07:24:06.501Z,6.24
2023-03-06T07:26:34.991Z,6.34
2023-03-06T07:29:03.769Z,6.46
2023-03-06T07:31:31.958Z,6.51
2023-03-06T07:34:03.875Z,6.64
2023-03-06T07:36:33.376Z,6.79
2023-03-06T07:39:01.728Z,6.95
2023-03-06T07:41:29.810Z,7.18
2023-03-06T07:43:57.881Z,7.37
2023-03-06T07:46:25.902Z,7.44
2023-03-06T07:48:54.264Z,7.52
2023-03-06T07:51:24.033Z,7.52
2023-03-06T07:53:52.080Z,7.65
2023-03-06T07:56:20.263Z,7.70
2023-03-06T07:58:49.016Z,7.79
2023-03-06T08:01:19.906Z,7.88
2023-03-06T08:03:50.087Z,8.06
2023-03-06T08:06:20.262Z,8.14
2023-03-06T08:08:52.497Z,8.10
2023-03-06T08:11:22.568Z,8.16
2023-03-06T08:13:52.816Z,8.13
2023-03-06T08:16:21.537Z,8.19
2023-03-06T08:18:49.818Z,8.27
2023-03-06T08:21:20.195Z,8.31
2023-03-06T08:23:49.734Z,8.41
2023-03-06T08:26:20.082Z,8.41
2023-03-06T08:28:48.747Z,8.33
2023-03-06T08:31:26.166Z,8.42
2023-03-06T08:33:54.651Z,8.56
2023-03-06T08:36:23.966Z,8.66
2023-03-06T08:38:53.723Z,8.68
2023-03-06T08:41:22.720Z,8.69
2023-03-06T08:43:51.729Z,8.70
2023-03-06T08:46:21.394Z,8.66
2023-03-06T08:48:49.499Z,8.60
2023-03-06T08:51:18.005Z,8.57
2023-03-06T08:53:46.331Z,8.52
2023-03-06T08:56:20.482Z,8.51
2023-03-06T08:58:48.985Z,8.62
2023-03-06T09:01:18.264Z,8.64
2023-03-06T09:03:47.054Z,8.55
2023-03-06T09:06:15.648Z,8.50
2023-03-06T09:08:44.787Z,8.54
2023-03-06T09:11:14.155Z,8.62
2023-03-06T09:13:44.517Z,8.72
2023-03-06T09:16:13.536Z,8.83
2023-03-06T09:18:41.973Z,8.84
2023-03-06T09:21:11.021Z,8.94
2023-03-06T09:23:40.580Z,9.05
2023-03-06T09:26:09.068Z,9.06
2023-03-06T09:28:40.631Z,8.96
2023-03-06T09:31:11.376Z,8.96
2023-03-06T09:33:40.221Z,9.01
2023-03-06T09:36:09.941Z,8.93
2023-03-06T09:38:37.973Z,8.96
2023-03-06T09:41:10.279Z,8.93
2023-03-06T09:43:43.507Z,8.94
2023-03-06T09:46:24.321Z,9.01
2023-03-06T09:49:10.519Z,9.07
2023-03-06T09:51:50.979Z,9.10
2023-03-06T09:54:28.053Z,9.17
2023-03-06T09:56:56.204Z,9.24
2023-03-06T09:59:27.664Z,9.35
2023-03-06T10:02:10.199Z,9.33
2023-03-06T10:04:42.022Z,9.26
2023-03-06T10:07:15.934Z,9.26
2023-03-06T10:09:48.532Z,9.36
2023-03-06T10:12:25.013Z,9.48
2023-03-06T10:15:08.158Z,9.74
2023-03-06T10:17:43.271Z,9.86
2023-03-06T10:20:18.780Z,9.98
2023-03-06T10:23:01.238Z,10.14
2023-03-06T10:25:34.498Z,10.20
2023-03-06T10:28:14.119Z,10.29
2023-03-06T10:30:47.734Z,10.28
2023-03-06T10:33:24.820Z,10.33
2023-03-06T10:35:55.244Z,10.32
2023-03-06T10:38:25.149Z,10.30
2023-03-06T10:41:05.436Z,10.31
2023-03-06T10:43:36.172Z,10.51
2023-03-06T10:46:05.143Z,10.75
2023-03-06T10:48:38.138Z,11.07
2023-03-06T10:51:19.405Z,11.36
2023-03-06T10:53:56.490Z,11.69
2023-03-06T10:56:30.319Z,11.94
2023-03-06T10:59:07.841Z,12.08
2023-03-06T11:01:36.084Z,12.03
2023-03-06T11:04:23.084Z,11.94
2023-03-06T11:07:06.681Z,11.81
2023-03-06T11:09:35.334Z,11.74
2023-03-06T11:12:23.360Z,11.78
2023-03-06T11:15:21.110Z,11.86
2023-03-06T11:17:58.848Z,11.84
2023-03-06T11:20:48.470Z,11.76
2023-03-06T11:23:22.765Z,11.75
2023-03-06T11:25:57.489Z,11.75
2023-03-06T11:28:29.733Z,11.77
2023-03-06T11:31:03.093Z,11.70
2023-03-06T11:33:36.792Z,11.54
2023-03-06T11:36:15.690Z,11.59
2023-03-06T11:38:50.087Z,11.56
2023-03-06T11:41:32.405Z,11.67
2023-03-06T11:44:13.788Z,11.88
2023-03-06T11:46:48.818Z,12.21
2023-03-06T11:49:23.972Z,12.39
2023-03-06T11:51:56.590Z,12.62
2023-03-06T11:54:24.830Z,12.54
2023-03-06T11:56:58.699Z,12.59
2023-03-06T11:59:45.969Z,12.77
2023-03-06T12:02:26.532Z,12.84
2023-03-06T12:05:02.972Z,12.88
2023-03-06T12:07:34.915Z,13.11
2023-03-06T12:10:18.455Z,13.29
2023-03-06T12:13:06.847Z,13.31
2023-03-06T12:15:50.387Z,13.50
2023-03-06T12:18:36.308Z,13.51
2023-03-06T12:21:11.103Z,13.48
2023-03-06T12:24:04.190Z,13.53
2023-03-06T12:26:53.469Z,13.45
2023-03-06T12:29:37.495Z,13.46
2023-03-06T12:32:16.913Z,13.38
2023-03-06T12:35:17.651Z,13.22
2023-03-06T12:37:59.444Z,13.24
2023-03-06T12:40:43.372Z,13.20
2023-03-06T12:43:34.732Z,13.17
2023-03-06T12:46:09.693Z,13.01
2023-03-06T12:48:38.544Z,12.91
2023-03-06T12:51:08.973Z,12.86
2023-03-06T12:53:38.525Z,12.92
2023-03-06T12:56:08.977Z,13.08
2023-03-06T12:58:52.281Z,13.70
2023-03-06T13:01:58.032Z,14.98
2023-03-06T13:05:01.414Z,17.01
2023-03-06T13:07:55.659Z,17.56
2023-03-06T13:10:27.884Z,17.59
2023-03-06T13:13:01.042Z,16.97
2023-03-06T13:15:36.787Z,16.09
2023-03-06T13:18:56.890Z,15.47
2023-03-06T13:22:10.570Z,15.41
2023-03-06T13:24:38.871Z,17.85
2023-03-06T13:27:09.920Z,18.90
2023-03-06T13:30:08.261Z,20.46
2023-03-06T13:32:37.371Z,21.12
2023-03-06T13:35:53.186Z,22.86
2023-03-06T13:39:01.225Z,25.45
2023-03-06T13:41:54.478Z,25.86
2023-03-06T13:44:51.147Z,25.30
2023-03-06T13:48:06.545Z,25.65
2023-03-06T13:50:41.131Z,26.52
2023-03-06T13:53:33.080Z,27.44
2023-03-06T13:56:14.819Z,28.82
2023-03-06T13:59:04.410Z,30.54
2023-03-06T14:01:49.997Z,31.80
2023-03-06T14:04:38.974Z,32.52
2023-03-06T14:07:25.928Z,32.22
2023-03-06T14:10:12.728Z,31.64
2023-03-06T14:12:44.566Z,31.67
2023-03-06T14:15:20.177Z,32.19
2023-03-06T14:17:57.491Z,32.88
2023-03-06T14:20:33.413Z,33.04
2023-03-06T14:23:27.657Z,32.51
2023-03-06T14:26:00.118Z,32.37
2023-03-06T14:28:30.035Z,32.76
2023-03-06T14:30:59.903Z,33.17
2023-03-06T14:33:32.661Z,33.46
2023-03-06T14:36:04.290Z,33.50
2023-03-06T14:38:37.467Z,33.48
2023-03-06T14:41:06.818Z,33.39
2023-03-06T14:43:35.077Z,33.28
2023-03-06T14:46:05.131Z,32.88
2023-03-06T14:48:42.386Z,32.34
2023-03-06T14:51:18.083Z,32.08
2023-03-06T14:53:48.547Z,31.57
2023-03-06T14:56:20.124Z,30.78
2023-03-06T14:58:54.773Z,30.40
2023-03-06T15:01:33.220Z,30.06
2023-03-06T15:04:03.016Z,29.75
2023-03-06T15:06:36.440Z,29.35
2023-03-06T15:09:10.236Z,29.05
2023-03-06T15:11:59.346Z,28.21
2023-03-06T15:14:36.949Z,27.77
2023-03-06T15:17:29.901Z,27.36
2023-03-06T15:19:59.764Z,27.23
2023-03-06T15:22:32.831Z,27.13
2023-03-06T15:25:30.080Z,26.60
2023-03-06T15:27:59.927Z,25.85
2023-03-06T15:30:31.126Z,25.03
2023-03-06T15:33:21.210Z,23.90
2023-03-06T15:35:55.053Z,22.60
2023-03-06T15:38:31.101Z,21.38
2023-03-06T15:41:01.261Z,20.26
2023-03-06T15:43:30.960Z,19.31
2023-03-06T15:46:01.630Z,18.45
2023-03-06T15:48:29.831Z,17.71
2023-03-06T15:50:58.068Z,17.02
2023-03-06T15:53:28.473Z,16.42
2023-03-06T15:55:57.471Z,15.88
2023-03-06T15:58:26.944Z,15.36
2023-03-06T16:00:55.114Z,14.90
2023-03-06T16:03:23.216Z,14.46
2023-03-06T16:05:51.250Z,14.04
2023-03-06T16:08:19.350Z,13.66
2023-03-06T16:10:50.592Z,13.34
2023-03-06T16:13:24.845Z,13.05
2023-03-06T16:15:53.242Z,12.79
2023-03-06T16:18:21.519Z,12.53
2023-03-06T16:20:50.944Z,12.25
2023-03-06T16:23:19.135Z,12.01
2023-03-06T16:25:50.529Z,11.78
2023-03-06T16:28:18.943Z,11.56
2023-03-06T16:30:47.082Z,11.34
2023-03-06T16:33:15.695Z,11.14
2023-03-06T16:35:46.596Z,10.87
2023-03-06T16:38:15.798Z,10.67
2023-03-06T16:40:43.758Z,10.47
2023-03-06T16:43:16.158Z,10.31
2023-03-06T16:45:44.794Z,10.13
2023-03-06T16:48:17.074Z,9.93
2023-03-06T16:50:46.152Z,9.78
2023-03-06T16:53:14.193Z,9.59
2023-03-06T16:55:42.762Z,9.42
2023-03-06T16:58:12.320Z,9.25
2023-03-06T17:00:40.448Z,9.12
2023-03-06T17:03:08.729Z,9.00
2023-03-06T17:05:39.961Z,8.91
2023-03-06T17:08:08.040Z,8.83
2023-03-06T17:10:36.264Z,8.73
2023-03-06T17:13:05.170Z,8.64
2023-03-06T17:15:34.661Z,8.55
2023-03-06T17:18:02.784Z,8.50
2023-03-06T17:20:30.923Z,8.42
2023-03-06T17:22:59.054Z,8.36
2023-03-06T17:25:26.979Z,8.30
2023-03-06T17:27:55.064Z,8.21
2023-03-06T17:30:23.364Z,8.16
2023-03-06T17:32:53.745Z,8.08
2023-03-06T17:35:21.797Z,7.96
2023-03-06T17:37:49.924Z,7.87
2023-03-06T17:40:18.166Z,7.79
2023-03-06T17:42:46.151Z,7.71
2023-03-06T17:45:14.137Z,7.65
2023-03-06T17:47:42.253Z,7.54
2023-03-06T17:50:12.933Z,7.41
2023-03-06T17:52:41.136Z,7.37
2023-03-06T17:55:10.072Z,7.34
2023-03-06T17:57:38.001Z,7.31
2023-03-06T18:00:07.699Z,7.31
2023-03-06T18:02:35.809Z,7.32
2023-03-06T18:05:06.402Z,7.30
2023-03-06T18:07:35.958Z,7.33
2023-03-06T18:10:04.445Z,7.36
2023-03-06T18:12:32.742Z,7.38
2023-03-06T18:15:00.808Z,7.39
2023-03-06T18:17:28.876Z,7.43
2023-03-06T18:19:57.176Z,7.45
2023-03-06T18:22:25.280Z,7.45
2023-03-06T18:24:54.659Z,7.42
2023-03-06T18:27:22.833Z,7.31
2023-03-06T18:29:52.217Z,7.24
2023-03-06T18:32:20.201Z,7.24
2023-03-06T18:34:50.682Z,7.29
2023-03-06T18:37:18.863Z,7.34
2023-03-06T18:39:47.129Z,7.38
2023-03-06T18:42:16.640Z,7.42
2023-03-06T18:44:47.779Z,7.47
2023-03-06T18:47:16.273Z,7.46
2023-03-06T18:49:46.004Z,7.46
2023-03-06T18:52:14.028Z,7.50
2023-03-06T18:54:42.296Z,7.53
2023-03-06T18:57:11.386Z,7.55
2023-03-06T18:59:40.876Z,7.56
2023-03-06T19:02:08.955Z,7.57
2023-03-06T19:04:38.034Z,7.58
2023-03-06T19:07:06.235Z,7.58
2023-03-06T19:09:34.581Z,7.59
2023-03-06T19:12:03.765Z,7.59
2023-03-06T19:14:31.867Z,7.60
2023-03-06T19:17:01.956Z,7.57
2023-03-06T19:19:30.060Z,7.55
2023-03-06T19:21:59.564Z,7.53
2023-03-06T19:24:27.957Z,7.51
2023-03-06T19:26:55.961Z,7.49
2023-03-06T19:29:23.997Z,7.41
2023-03-06T19:31:52.276Z,7.34
2023-03-06T19:34:21.783Z,7.26
2023-03-06T19:36:53.608Z,7.17
2023-03-06T19:39:21.551Z,7.10
2023-03-06T19:41:49.547Z,7.02
2023-03-06T19:44:17.897Z,6.93
2023-03-06T19:46:45.940Z,6.85
2023-03-06T19:49:16.911Z,6.75
2023-03-06T19:51:46.408Z,6.67
2023-03-06T19:54:15.361Z,6.60
2023-03-06T19:56:43.827Z,6.52
2023-03-06T19:59:11.943Z,6.46
2023-03-06T20:01:40.458Z,6.40
2023-03-06T20:04:08.547Z,6.39
2023-03-06T20:06:37.757Z,6.40
2023-03-06T20:09:09.632Z,6.39
2023-03-06T20:11:37.834Z,6.43
2023-03-06T20:14:08.026Z,6.43
2023-03-06T20:16:37.281Z,6.37
2023-03-06T20:19:06.487Z,6.33
2023-03-06T20:21:37.657Z,6.34
2023-03-06T20:24:09.282Z,6.37
2023-03-06T20:26:38.633Z,6.43
2023-03-06T20:29:06.717Z,6.46
2023-03-06T20:31:34.754Z,6.48
2023-03-06T20:34:03.291Z,6.45
2023-03-06T20:36:35.527Z,6.44
2023-03-06T20:39:08.889Z,6.36
2023-03-06T20:41:37.268Z,6.30
2023-03-06T20:44:07.655Z,6.19
2023-03-06T20:46:36.587Z,6.11
2023-03-06T20:49:05.276Z,6.04
2023-03-06T20:51:36.257Z,5.95
2023-03-06T20:54:04.708Z,5.85
2023-03-06T20:56:36.346Z,5.77
2023-03-06T20:59:05.793Z,5.69
2023-03-06T21:01:36.264Z,5.61
2023-03-06T21:04:05.310Z,5.55
2023-03-06T21:06:34.081Z,5.49
2023-03-06T21:09:02.626Z,5.38
2023-03-06T21:11:30.838Z,5.26
2023-03-06T21:14:01.050Z,5.25
2023-03-06T21:16:30.356Z,5.28
2023-03-06T21:19:00.501Z,5.24
2023-03-06T21:21:31.276Z,5.25
2023-03-06T21:23:59.893Z,5.27
2023-03-06T21:26:30.137Z,5.31
2023-03-06T21:28:59.562Z,5.36
2023-03-06T21:31:28.403Z,5.41
2023-03-06T21:33:56.887Z,5.47
2023-03-06T21:36:25.072Z,5.52
2023-03-06T21:38:54.540Z,5.57
2023-03-06T21:41:25.088Z,5.61
2023-03-06T21:43:56.566Z,5.66
2023-03-06T21:46:27.121Z,5.70
2023-03-06T21:48:55.522Z,5.73
2023-03-06T21:51:24.757Z,5.73
2023-03-06T21:53:53.918Z,5.72
2023-03-06T21:56:25.047Z,5.68
2023-03-06T21:58:53.601Z,5.70
2023-03-06T22:01:23.810Z,5.69
2023-03-06T22:03:53.713Z,5.73
2023-03-06T22:06:25.014Z,5.82
2023-03-06T22:08:53.665Z,5.90
2023-03-06T22:11:23.483Z,6.00
2023-03-06T22:13:53.314Z,6.04
2023-03-06T22:16:21.637Z,6.10
2023-03-06T22:18:51.744Z,6.16
2023-03-06T22:21:23.352Z,6.18
2023-03-06T22:23:52.048Z,6.20
2023-03-06T22:26:20.838Z,6.21
2023-03-06T22:28:48.946Z,6.20
2023-03-06T22:31:18.739Z,6.16
2023-03-06T22:33:47.454Z,6.15
2023-03-06T22:36:16.939Z,6.15
2023-03-06T22:38:48.117Z,6.11
2023-03-06T22:41:20.262Z,6.04
2023-03-06T22:43:48.666Z,5.96
2023-03-06T22:46:18.561Z,5.93
2023-03-06T22:48:46.955Z,5.91
2023-03-06T22:51:17.190Z,5.93
2023-03-06T22:53:46.970Z,5.92
2023-03-06T22:56:17.176Z,5.90
2023-03-06T22:58:45.781Z,5.86
2023-03-06T23:01:16.088Z,5.90
2023-03-06T23:03:45.906Z,5.93
2023-03-06T23:06:15.751Z,5.96
2023-03-06T23:08:44.607Z,6.00
2023-03-06T23:11:17.227Z,6.05
2023-03-06T23:13:45.756Z,6.11
2023-03-06T23:16:14.365Z,6.15
2023-03-06T23:18:42.932Z,6.16
2023-03-06T23:21:13.253Z,6.17
2023-03-06T23:23:41.799Z,6.17
2023-03-06T23:26:11.905Z,6.20
2023-03-06T23:28:41.665Z,6.18
2023-03-06T23:31:10.570Z,6.20
2023-03-06T23:33:39.797Z,6.17
2023-03-06T23:36:09.896Z,6.14
2023-03-06T23:38:38.306Z,6.10
2023-03-06T23:41:09.091Z,6.06
2023-03-06T23:43:37.498Z,6.02
2023-03-06T23:46:08.264Z,5.96
2023-03-06T23:48:37.323Z,5.90
2023-03-06T23:51:07.581Z,5.82
2023-03-06T23:53:36.250Z,5.72
2023-03-06T23:56:06.455Z,5.63
2023-03-06T23:58:34.661Z,5.58
